Latest Weather Observations for Smithton

IDT60801

Issued at 5:01 pm EST Friday 28 August 2015 (issued every 30 minutes, with the page automatically refreshed every 10 minutes)

About weather observations | Map of weather stations | Latest weather observations for TAS | Other Formats
Station Details ID: 091292 Name: SMITHTON AERODROME Lat: -40.83 Lon: 145.08 Height: 7.5 m
Data from the previous 72 hours. | See also: Recent months at Smithton
Date/Time
EST
Temp
°C
App
Temp
°C
Dew
Point
Rel
Hum
%
Delta-T
°C
Wind Press
QNH
hPa
Press
MSL
hPa
Rain
since 9 am
mm
Dir
 
Spd
km/h
Gust
km/h
Spd
kts
Gust
kts
28/05:00pm 8.8 0.8 1.7 61 2.9 S 33 46 18 25 1025.1 - 0.0
28/04:30pm 10.2 2.8 1.8 56 3.5 S 30 39 16 21 1024.9 - 0.0
28/04:00pm 11.1 4.4 1.4 51 4.1 S 26 33 14 18 1024.7 - 0.0
28/03:30pm 11.5 4.2 -0.3 44 4.8 S 28 35 15 19 1024.5 - 0.0
28/03:00pm 11.9 4.7 0.4 45 4.7 SSW 28 33 15 18 1024.4 1024.4 0.0
28/02:30pm 11.9 4.7 1.0 47 4.6 SSW 28 39 15 21 1024.4 - 0.0
28/02:00pm 12.0 5.7 1.6 49 4.4 S 24 35 13 19 1024.5 - 0.0
28/01:30pm 12.1 5.4 1.7 49 4.4 S 26 35 14 19 1024.7 - 0.0
28/01:00pm 11.7 5.0 1.6 50 4.3 SSW 26 33 14 18 1025.0 - 0.0
28/12:30pm 11.8 4.6 0.6 46 4.6 S 28 35 15 19 1025.4 - 0.0
28/12:00pm 11.3 4.0 2.3 54 3.8 S 30 39 16 21 1025.7 1025.7 0.0
28/11:30am 10.8 4.5 3.6 61 3.2 S 26 33 14 18 1026.0 - 0.0
28/11:00am 10.4 4.2 4.5 67 2.6 S 26 35 14 19 1026.1 - 0.0
28/10:30am 9.8 4.2 5.4 74 2.0 S 24 33 13 18 1026.1 - 0.0
28/10:00am 8.7 2.6 4.7 76 1.8 S 26 33 14 18 1026.1 - 0.0
28/09:30am 8.2 2.2 5.1 81 1.4 SSE 26 37 14 20 1026.0 - 0.0
28/09:00am 7.7 2.2 6.0 89 0.8 S 24 33 13 18 1025.7 1025.7 0.0
28/08:30am 7.1 2.6 7.0 99 0.0 SSW 20 30 11 16 1025.4 - 0.0
28/08:00am 5.8 3.5 5.8 100 0.0 SSW 7 11 4 6 1025.3 - 0.0
28/07:30am 3.8 0.7 3.8 100 0.0 SSW 9 11 5 6 1025.0 - 0.0
28/07:00am 3.1 -0.5 3.1 100 0.0 SSW 11 13 6 7 1024.6 - 0.0
28/06:30am 4.0 0.6 4.0 100 0.0 SSW 11 13 6 7 1024.4 - 0.0
28/06:00am 4.4 1.1 4.4 100 0.0 S 11 13 6 7 1024.3 1024.3 0.0
28/05:30am 3.6 0.1 3.6 100 0.0 SSW 11 15 6 8 1023.8 - 0.0
28/05:00am 3.4 -0.1 3.4 100 0.0 SSW 11 13 6 7 1023.4 - 0.0
28/04:30am 4.3 0.6 4.3 100 0.0 SSW 13 15 7 8 1023.3 - 0.0
28/04:00am 4.8 0.4 4.7 99 0.0 SSW 17 19 9 10 1023.2 - 0.0
28/03:30am 5.1 1.1 5.0 99 0.0 SSW 15 20 8 11 1023.0 - 0.0
28/03:00am 6.1 1.4 6.0 99 0.0 SSW 20 24 11 13 1023.0 1023.0 0.0
28/02:30am 6.0 1.5 5.9 99 0.0 SSW 19 24 10 13 1023.1 - 0.0
28/02:00am 6.1 1.5 5.8 98 0.1 SSW 19 22 10 12 1023.1 - 0.0
28/01:30am 6.3 2.2 6.0 98 0.1 SSW 17 20 9 11 1023.2 - 0.0
28/01:00am 6.3 2.2 6.0 98 0.1 SSW 17 22 9 12 1023.3 - 0.0
28/12:30am 6.6 2.5 6.3 98 0.1 SSW 17 20 9 11 1023.2 - 0.0
28/12:00am 6.9 2.4 6.3 96 0.3 SSW 19 24 10 13 1023.1 1023.1 0.0
 
Date/Time
EST
Temp
°C
App
Temp
°C
Dew
Point
Rel
Hum
%
Delta-T
°C
Wind Press
QNH
hPa
Press
MSL
hPa
Rain
since 9 am
mm
Dir
 
Spd
km/h
Gust
km/h
Spd
kts
Gust
kts
27/11:30pm 7.3 2.3 6.6 95 0.3 SSW 22 28 12 15 1023.1 - 0.0
27/11:00pm 7.0 2.4 6.4 96 0.3 SSW 20 26 11 14 1023.2 - 0.0
27/10:30pm 7.5 2.9 6.4 93 0.5 SSW 20 28 11 15 1023.1 - 0.0
27/10:00pm 7.4 2.9 6.0 91 0.6 SSW 19 24 10 13 1023.1 - 0.0
27/09:30pm 7.9 2.1 6.4 90 0.7 SSW 26 35 14 19 1022.9 - 0.0
27/09:00pm 8.0 2.5 6.1 88 0.9 SSW 24 33 13 18 1022.8 1022.8 0.0
27/08:30pm 7.7 2.2 6.0 89 0.8 SSW 24 32 13 17 1022.6 - 0.0
27/08:00pm 8.0 2.2 6.3 89 0.8 SSW 26 30 14 16 1022.6 - 0.0
27/07:30pm 8.3 3.1 7.1 92 0.6 SW 24 30 13 16 1022.6 - 0.0
27/07:00pm 8.8 3.5 6.6 86 1.0 SW 24 33 13 18 1022.4 - 0.0
27/06:30pm 9.0 4.3 5.9 81 1.4 SW 20 24 11 13 1022.2 - 0.0
27/06:00pm 9.9 5.2 6.2 78 1.7 SW 20 26 11 14 1021.7 1021.7 0.0
27/05:30pm 10.9 5.9 6.5 74 2.1 SW 22 28 12 15 1021.3 - 0.0
27/05:00pm 12.6 7.0 7.3 70 2.6 SW 26 33 14 18 1021.1 - 0.0
27/04:30pm 13.8 8.7 7.8 67 3.0 S 24 33 13 18 1020.8 - 0.0
27/04:00pm 14.1 9.2 8.3 68 2.9 S 24 35 13 19 1020.6 - 0.0
27/03:30pm 14.4 9.1 8.6 68 2.9 SW 26 32 14 17 1020.5 - 0.0
27/03:00pm 15.0 10.3 9.1 68 3.0 SW 24 30 13 16 1020.4 1020.4 0.0
27/02:30pm 15.1 11.6 10.1 72 2.6 SW 19 26 10 14 1020.4 - 0.0
27/02:00pm 15.1 11.2 8.8 66 3.2 SSW 19 26 10 14 1020.7 - 0.0
27/01:30pm 14.2 11.4 8.6 69 2.8 SSW 13 17 7 9 1021.0 - 0.0
27/01:00pm 13.6 10.2 9.1 74 2.3 SW 17 20 9 11 1021.6 - 0.0
27/12:30pm 13.4 10.8 10.6 83 1.5 SW 15 20 8 11 1021.8 - 0.0
27/12:00pm 13.4 11.1 10.6 83 1.5 S 13 17 7 9 1022.3 1022.3 0.0
27/11:30am 13.2 11.2 11.4 89 1.0 SSW 13 17 7 9 1022.7 - 0.0
27/11:00am 13.0 12.0 11.1 88 1.0 ESE 7 11 4 6 1023.1 - 0.0
27/10:30am 12.4 11.8 12.4 100 0.0 SSE 7 11 4 6 1023.2 - 0.0
27/10:00am 11.6 10.4 11.6 100 0.0 S 9 13 5 7 1023.3 - 0.0
27/09:30am 10.8 9.4 10.8 100 0.0 S 9 11 5 6 1023.4 - 0.0
27/09:00am 10.1 - 10.2 - - S 9 11 5 6 1023.5 1023.5 0.6
27/08:30am 9.5 - 9.6 - - SE 9 11 5 6 1023.4 - 0.6
27/08:00am 8.1 6.0 8.1 100 0.0 SE 9 9 5 5 1023.3 - 0.6
27/07:30am 7.4 5.5 7.4 100 0.0 SE 7 9 4 5 1022.9 - 0.6
27/07:00am 7.3 5.3 7.3 100 0.0 SE 7 9 4 5 1022.9 - 0.6
27/06:30am 7.8 6.0 7.8 100 0.0 SE 7 9 4 5 1022.6 - 0.6
27/06:00am 8.3 6.2 8.3 100 0.0 ESE 9 11 5 6 1022.4 1022.4 0.6
27/05:30am 8.2 6.1 8.2 100 0.0 ESE 9 13 5 7 1022.4 - 0.6
27/05:00am 8.4 5.6 8.4 100 0.0 ESE 13 15 7 8 1022.4 - 0.6
27/04:30am 8.8 5.7 8.8 100 0.0 ESE 15 19 8 10 1022.5 - 0.6
27/04:00am 9.0 5.9 9.0 100 0.0 ESE 15 17 8 9 1022.6 - 0.6
27/03:30am 9.1 6.1 9.1 100 0.0 ESE 15 19 8 10 1022.9 - 0.6
27/03:00am 9.3 6.7 9.3 100 0.0 ESE 13 17 7 9 1023.3 1023.3 0.4
27/02:30am 9.5 7.7 9.5 100 0.0 ESE 9 13 5 7 1023.7 - 0.4
27/02:00am 9.5 7.3 9.5 100 0.0 ESE 11 15 6 8 1024.1 - 0.4
27/01:30am 9.8 6.6 9.8 100 0.0 ESE 17 20 9 11 1024.5 - 0.4
27/01:00am 9.7 7.2 9.7 100 0.0 E 13 15 7 8 1024.8 - 0.0
27/12:30am 9.5 6.9 9.5 100 0.0 ESE 13 15 7 8 1025.0 - 0.0
27/12:00am 9.6 7.5 9.6 100 0.0 ESE 11 13 6 7 1025.3 1025.3 0.0
 
Date/Time
EST
Temp
°C
App
Temp
°C
Dew
Point
Rel
Hum
%
Delta-T
°C
Wind Press
QNH
hPa
Press
MSL
hPa
Rain
since 9 am
mm
Dir
 
Spd
km/h
Gust
km/h
Spd
kts
Gust
kts
26/11:30pm 9.7 6.8 9.7 100 0.0 ESE 15 20 8 11 1025.5 - 0.0
26/11:00pm 10.0 6.8 9.9 99 0.1 E 17 24 9 13 1025.7 - 0.0
26/10:30pm 10.1 7.3 8.4 89 0.8 E 13 17 7 9 1026.0 - 0.0
26/10:00pm 9.9 7.2 7.2 83 1.3 E 11 15 6 8 1026.3 - 0.0
26/09:30pm 10.3 6.4 7.2 81 1.5 E 17 20 9 11 1026.3 - 0.0
26/09:00pm 9.9 6.6 6.6 80 1.5 ESE 13 17 7 9 1026.3 1026.3 0.0
26/08:30pm 9.9 5.8 6.4 79 1.6 E 17 20 9 11 1026.3 - 0.0
26/08:00pm 9.4 6.0 5.9 79 1.6 E 13 17 7 9 1026.4 - 0.0
26/07:30pm 9.3 5.9 5.7 78 1.6 E 13 17 7 9 1026.5 - 0.0
26/07:00pm 9.5 6.5 5.9 78 1.6 E 11 15 6 8 1026.6 - 0.0
26/06:30pm 9.4 6.7 5.8 78 1.6 E 9 11 5 6 1026.6 - 0.0
26/06:00pm 9.7 6.2 5.5 75 1.9 E 13 19 7 10 1026.5 1026.5 0.0
26/05:30pm 10.3 6.1 5.5 72 2.2 E 17 22 9 12 1026.5 - 0.0
26/05:00pm 10.8 5.9 5.1 68 2.6 E 20 28 11 15 1026.4 - 0.0
26/04:30pm 11.3 6.1 5.4 67 2.7 E 22 30 12 16 1026.5 - 0.0
26/04:00pm 12.1 5.7 5.3 63 3.1 E 28 39 15 21 1026.4 - 0.0
26/03:30pm 12.4 6.4 5.1 61 3.4 E 26 35 14 19 1026.6 - 0.0
26/03:00pm 12.3 5.8 4.5 59 3.5 E 28 41 15 22 1026.8 1026.8 0.0
26/02:30pm 13.1 6.8 5.5 60 3.6 ENE 28 39 15 21 1027.2 - 0.0
26/02:00pm 13.6 7.6 5.5 58 3.8 E 26 35 14 19 1027.4 - 0.0
26/01:30pm 13.0 6.2 5.2 59 3.6 E 30 41 16 22 1027.7 - 0.0
26/01:00pm 13.6 7.5 6.7 63 3.3 ENE 28 39 15 21 1028.2 - 0.0
26/12:30pm 13.3 6.6 5.7 60 3.6 E 30 41 16 22 1028.7 - 0.0
26/12:00pm 13.6 8.2 6.2 61 3.5 ENE 24 32 13 17 1029.2 1029.2 0.0
26/11:30am 13.1 6.9 6.2 63 3.3 E 28 33 15 18 1029.6 - 0.0
26/11:00am 12.6 7.3 6.6 67 2.9 E 24 32 13 17 1029.8 - 0.0
26/10:30am 12.3 7.1 7.2 71 2.5 E 24 32 13 17 1030.0 - 0.0
26/10:00am 11.2 7.0 8.2 82 1.5 E 20 28 11 15 1030.2 - 0.0
26/09:30am 9.8 6.2 9.8 100 0.0 E 19 24 10 13 1030.3 - 0.0
26/09:00am 8.2 - 8.5 - - ESE 9 17 5 9 1030.3 1030.3 0.2
26/08:30am 5.1 - 5.2 - - SSW 6 7 3 4 1030.3 - 0.2
26/08:00am 2.5 - 2.6 - - SSW 7 9 4 5 1030.2 - 0.2
26/07:30am 1.1 - 1.2 - - SSW 9 11 5 6 1030.2 - 0.2
26/07:00am 0.8 - 0.9 - - SSW 7 9 4 5 1030.0 - 0.2
26/06:30am 0.7 - 0.8 - - SSW 9 11 5 6 1030.0 - 0.2
26/06:00am 0.7 - 0.8 - - SSW 7 9 4 5 1029.9 1029.9 0.2
26/05:30am 1.5 - 1.6 - - SSW 9 9 5 5 1029.9 - 0.0
26/05:00am 1.1 - 1.2 - - SSW 7 11 4 6 1029.9 - 0.0
26/04:30am 0.9 -2.7 0.9 100 0.0 SSW 9 11 5 6 1029.8 - 0.0
26/04:00am 1.5 - 1.6 - - SSW 7 7 4 4 1029.8 - 0.0
26/03:30am 1.3 -2.2 1.3 100 0.0 SSW 9 9 5 5 1029.8 - 0.0
26/03:00am 1.5 -2.0 1.5 100 0.0 S 9 11 5 6 1030.0 1030.0 0.0
26/02:30am 1.8 -2.0 1.8 100 0.0 S 11 13 6 7 1030.4 - 0.0
26/02:00am 1.4 -1.7 1.4 100 0.0 SSE 7 9 4 5 1030.5 - 0.0
26/01:30am 1.5 -1.6 1.5 100 0.0 SSE 7 9 4 5 1030.7 - 0.0
26/01:00am 1.2 -1.7 1.2 100 0.0 SSE 6 7 3 4 1030.7 - 0.0
26/12:30am 1.9 -1.1 1.9 100 0.0 SSE 7 9 4 5 1030.7 - 0.0
26/12:00am 2.0 -1.4 2.0 100 0.0 S 9 9 5 5 1030.6 1030.6 0.0
 
Date/Time
EST
Temp
°C
App
Temp
°C
Dew
Point
Rel
Hum
%
Delta-T
°C
Wind Press
QNH
hPa
Press
MSL
hPa
Rain
since 9 am
mm
Dir
 
Spd
km/h
Gust
km/h
Spd
kts
Gust
kts
25/11:30pm 1.8 -1.6 1.8 100 0.0 S 9 11 5 6 1030.6 - 0.0
25/11:00pm 2.4 -1.3 2.4 100 0.0 S 11 13 6 7 1030.6 - 0.0
25/10:30pm 2.8 -0.4 2.8 100 0.0 S 9 9 5 5 1030.6 - 0.0
25/10:00pm 3.8 0.4 3.8 100 0.0 S 11 11 6 6 1030.3 - 0.0
25/09:30pm 3.0 -0.6 3.0 100 0.0 NNW 11 11 6 6 1030.3 - 0.0
25/09:00pm 3.6 2.2 3.6 100 0.0 CALM 0 0 0 0 1030.0 1030.0 0.0
25/08:30pm 3.7 1.5 3.6 99 0.0 NNW 4 7 2 4 1029.9 - 0.0
25/08:00pm 5.2 2.8 5.1 99 0.0 NNW 7 9 4 5 1029.6 - 0.0
25/07:30pm 5.4 4.0 5.3 99 0.0 NNW 2 6 1 3 1029.4 - 0.0
25/07:00pm 6.2 3.5 5.8 97 0.2 NNW 9 11 5 6 1029.1 - 0.0
25/06:30pm 8.0 7.2 6.6 91 0.6 CALM 0 2 0 1 1028.9 - 0.0
25/06:00pm 8.6 6.0 5.9 83 1.2 NNW 9 11 5 6 1028.5 1028.5 0.0
25/05:30pm 10.1 7.1 6.1 76 1.9 NNW 11 15 6 8 1028.1 - 0.0

Other Formats:

Comma delimited format used in spreadsheet applications
http://www.bom.gov.au/fwo/IDT60801/IDT60801.94953.axf

JavaScript Object Notation format (JSON) in row-major order
http://www.bom.gov.au/fwo/IDT60801/IDT60801.94953.json